Time;durP1;ratioP1;P1;durP2;ratioP2;P2;SDS_P1;SDS_P2;PMS_P1;PMS_P2;Temp;Humidity;BMP_temperature;BMP_pressure;BME280_temperature;BME280_humidity;BME280_pressure;Samples;Min_cycle;Max_cycle;Signal;HPM_P1;HPM_P2
2021/05/01 00:00:30;;;;;;;5.18;4.65;;;;;;;12.60;65.02;100492.28;4914461;28;97985;-60
2021/05/01 00:02:56;;;;;;;5.05;4.53;;;;;;;12.58;64.69;100489.06;4899187;28;122954;-60
2021/05/01 00:05:22;;;;;;;5.20;4.70;;;;;;;12.58;64.91;100490.97;4898570;28;126864;-60
2021/05/01 00:07:48;;;;;;;4.68;4.28;;;;;;;12.57;65.03;100505.53;4898978;28;127817;-62
2021/05/01 00:10:14;;;;;;;5.10;4.60;;;;;;;12.56;65.21;100502.03;4899605;28;127502;-62
2021/05/01 00:12:41;;;;;;;5.50;5.00;;;;;;;12.56;65.01;100495.81;4899342;28;108796;-60
2021/05/01 00:15:10;;;;;;;5.00;4.50;;;;;;;12.55;65.23;100494.22;4902138;28;127413;-60
2021/05/01 00:17:36;;;;;;;5.13;4.60;;;;;;;12.53;65.12;100486.34;4903089;28;112246;-62
2021/05/01 00:20:03;;;;;;;5.25;4.75;;;;;;;12.51;64.94;100481.25;4902580;28;128216;-61
2021/05/01 00:22:29;;;;;;;4.95;4.45;;;;;;;12.52;64.75;100474.75;4903381;28;111277;-60
2021/05/01 00:24:55;;;;;;;5.00;4.47;;;;;;;12.51;64.97;100473.13;4901688;28;128100;-62
2021/05/01 00:27:21;;;;;;;5.10;4.57;;;;;;;12.51;64.85;100473.13;4901846;28;127157;-62
2021/05/01 00:29:47;;;;;;;5.10;4.60;;;;;;;12.49;65.04;100478.00;4902415;28;126354;-62
2021/05/01 00:32:13;;;;;;;5.63;4.28;;;;;;;12.48;65.22;100478.28;4902815;28;124415;-60
2021/05/01 00:34:39;;;;;;;5.70;4.40;;;;;;;12.46;65.33;100494.81;4902815;28;128836;-62
2021/05/01 00:37:05;;;;;;;4.95;4.55;;;;;;;12.48;65.35;100492.59;4902357;28;98462;-60
2021/05/01 00:39:31;;;;;;;5.47;4.68;;;;;;;12.46;65.15;100497.50;4901859;28;126426;-62
2021/05/01 00:41:57;;;;;;;5.28;4.78;;;;;;;12.45;65.02;100495.88;4902074;28;121259;-60
2021/05/01 00:44:23;;;;;;;5.07;4.57;;;;;;;12.45;65.12;100495.88;4903154;28;106497;-60
2021/05/01 00:46:49;;;;;;;5.03;4.47;;;;;;;12.45;65.18;100503.16;4902602;28;110751;-60
2021/05/01 00:49:15;;;;;;;4.80;4.35;;;;;;;12.48;65.40;100508.84;4902181;28;123086;-62
2021/05/01 00:51:41;;;;;;;5.32;4.30;;;;;;;12.56;64.92;100496.63;4903361;28;97942;-60
2021/05/01 00:54:07;;;;;;;4.93;4.47;;;;;;;12.59;64.61;100487.16;4884720;28;102120;-60
2021/05/01 00:56:33;;;;;;;4.55;4.15;;;;;;;12.61;64.67;100480.34;4902134;28;128162;-60
2021/05/01 00:58:59;;;;;;;5.72;4.65;;;;;;;12.64;64.51;100482.50;4902241;28;127658;-60
2021/05/01 01:01:26;;;;;;;5.47;4.75;;;;;;;12.65;64.68;100476.00;4901367;28;98302;-63
2021/05/01 01:03:52;;;;;;;4.85;4.30;;;;;;;12.69;64.39;100460.03;4902413;28;99018;-60
2021/05/01 01:06:19;;;;;;;4.60;4.18;;;;;;;12.68;64.29;100451.13;4901709;28;116978;-63
2021/05/01 01:08:45;;;;;;;5.10;4.50;;;;;;;12.67;64.28;100440.59;4903097;28;98245;-60
2021/05/01 01:11:12;;;;;;;5.28;4.78;;;;;;;12.67;64.33;100438.69;4900561;28;98063;-62
2021/05/01 01:13:38;;;;;;;5.38;4.47;;;;;;;12.65;64.17;100448.97;4902987;28;98483;-60
2021/05/01 01:16:04;;;;;;;5.00;4.50;;;;;;;12.63;64.46;100461.97;4901758;28;98467;-60
2021/05/01 01:18:31;;;;;;;5.18;4.53;;;;;;;12.63;64.58;100464.69;4902365;28;98427;-62
2021/05/01 01:21:00;;;;;;;4.95;4.45;;;;;;;12.62;64.89;100454.16;4900966;28;107521;-62
2021/05/01 01:23:27;;;;;;;6.30;4.70;;;;;;;12.61;64.36;100468.75;4903150;28;98288;-62
2021/05/01 01:25:53;;;;;;;4.90;4.35;;;;;;;12.60;64.25;100469.84;4901413;28;116363;-60
2021/05/01 01:28:19;;;;;;;4.70;4.28;;;;;;;12.58;64.75;100474.72;4901248;28;127597;-62
2021/05/01 01:30:45;;;;;;;4.95;4.43;;;;;;;12.58;64.79;100470.13;4902158;28;112576;-60
2021/05/01 01:33:11;;;;;;;5.35;4.75;;;;;;;12.56;64.63;100482.31;4899349;28;128135;-62
2021/05/01 01:35:38;;;;;;;5.90;4.72;;;;;;;12.53;64.51;100473.66;4902405;28;98860;-62
2021/05/01 01:38:05;;;;;;;4.70;4.28;;;;;;;12.52;64.33;100461.22;4900771;28;98242;-60
2021/05/01 01:40:31;;;;;;;5.15;4.43;;;;;;;12.50;64.90;100460.72;4899952;28;98028;-60
2021/05/01 01:42:57;;;;;;;6.03;4.85;;;;;;;12.49;64.82;100458.28;4901636;28;99631;-62
2021/05/01 01:45:27;;;;;;;5.20;4.70;;;;;;;12.46;64.65;100456.16;4901127;28;128068;-60
2021/05/01 01:47:54;;;;;;;5.03;4.53;;;;;;;12.45;64.92;100463.44;4901968;28;98834;-60
2021/05/01 01:50:20;;;;;;;5.32;4.82;;;;;;;12.43;64.95;100468.31;4902086;28;97788;-62
2021/05/01 01:52:46;;;;;;;5.88;4.78;;;;;;;12.39;64.88;100472.66;4901646;28;98412;-62
2021/05/01 01:55:15;;;;;;;5.05;4.55;;;;;;;12.40;64.80;100478.88;4902564;28;99104;-62
2021/05/01 01:57:41;;;;;;;6.85;4.78;;;;;;;12.38;65.46;100476.47;4901285;28;97946;-60
2021/05/01 02:00:20;;;;;;;4.78;4.28;;;;;;;12.36;64.66;100477.81;4901004;28;105417;-60
2021/05/01 02:02:46;;;;;;;5.47;4.78;;;;;;;12.37;65.11;100484.84;4900899;28;98672;-60
2021/05/01 02:05:13;;;;;;;5.55;4.80;;;;;;;12.37;65.15;100482.13;4900940;28;128441;-60
2021/05/01 02:07:39;;;;;;;5.55;4.68;;;;;;;12.34;64.89;100470.00;4901390;28;98541;-62
2021/05/01 02:10:06;;;;;;;5.22;4.60;;;;;;;12.34;65.04;100463.75;4901976;28;97854;-62
2021/05/01 02:12:36;;;;;;;4.95;4.45;;;;;;;12.32;65.34;100463.25;4901322;28;106153;-62
2021/05/01 02:15:10;;;;;;;5.10;4.60;;;;;;;12.31;65.26;100451.63;4902190;28;98443;-60
2021/05/01 02:17:39;;;;;;;5.07;4.57;;;;;;;12.27;64.98;100459.50;4904647;28;98581;-62
2021/05/01 02:20:06;;;;;;;5.03;4.40;;;;;;;12.28;65.37;100452.19;4901803;28;97808;-60
2021/05/01 02:22:33;;;;;;;5.00;4.28;;;;;;;12.29;65.25;100456.50;4901004;28;97847;-59
2021/05/01 02:24:59;;;;;;;5.15;4.40;;;;;;;12.26;65.47;100454.34;4901325;28;108572;-60
2021/05/01 02:27:25;;;;;;;5.07;4.57;;;;;;;12.25;65.44;100464.34;4901438;28;98369;-62
2021/05/01 02:29:52;;;;;;;5.05;4.53;;;;;;;12.25;65.45;100467.06;4901398;28;99371;-62
2021/05/01 02:32:18;;;;;;;5.07;4.57;;;;;;;12.23;65.63;100468.44;4901400;28;98647;-60
2021/05/01 02:34:44;;;;;;;4.95;4.45;;;;;;;12.23;65.40;100468.44;4900757;28;99347;-63
2021/05/01 02:37:10;;;;;;;5.28;4.40;;;;;;;12.23;65.69;100465.72;4900456;28;119974;-60
2021/05/01 02:39:36;;;;;;;4.95;4.18;;;;;;;12.20;65.30;100452.78;4901601;28;97734;-60
2021/05/01 02:42:03;;;;;;;4.95;4.50;;;;;;;12.18;65.37;100444.94;4915498;28;99738;-60
2021/05/01 02:44:29;;;;;;;4.82;4.32;;;;;;;12.18;65.76;100444.13;4899139;28;98465;-60
2021/05/01 02:46:55;;;;;;;5.03;4.40;;;;;;;12.16;65.58;100449.81;4899567;28;126262;-63
2021/05/01 02:49:21;;;;;;;5.28;4.43;;;;;;;12.16;65.53;100451.72;4901855;28;97732;-62
2021/05/01 02:51:47;;;;;;;5.38;4.32;;;;;;;12.14;65.81;100445.75;4899411;28;128175;-60
2021/05/01 02:54:13;;;;;;;4.72;4.10;;;;;;;12.15;65.47;100444.69;4899787;28;100774;-63
2021/05/01 02:56:39;;;;;;;5.25;4.55;;;;;;;12.14;65.93;100456.56;4899800;28;127942;-60
2021/05/01 02:59:05;;;;;;;4.68;4.22;;;;;;;12.14;65.31;100456.56;4899781;28;124664;-60
2021/05/01 03:01:31;;;;;;;5.03;4.32;;;;;;;12.11;65.70;100444.44;4899770;28;128867;-60
2021/05/01 03:03:57;;;;;;;5.07;4.38;;;;;;;12.10;65.72;100445.50;4900045;28;128633;-60
2021/05/01 03:06:23;;;;;;;5.15;4.65;;;;;;;12.10;66.01;100444.69;4900151;28;127512;-63
2021/05/01 03:08:49;;;;;;;5.15;4.28;;;;;;;12.10;65.64;100442.81;4900142;28;123538;-60
2021/05/01 03:11:15;;;;;;;5.72;4.50;;;;;;;12.08;65.80;100452.28;4900525;28;115205;-62
2021/05/01 03:13:41;;;;;;;5.88;4.82;;;;;;;12.08;65.84;100444.19;4900302;28;100077;-60
2021/05/01 03:16:07;;;;;;;5.68;4.47;;;;;;;12.08;65.93;100436.88;4898864;28;128250;-60
2021/05/01 03:18:33;;;;;;;5.45;4.88;;;;;;;12.07;65.39;100429.88;4900636;28;122719;-60
2021/05/01 03:20:59;;;;;;;5.28;4.78;;;;;;;12.06;65.84;100422.03;4899218;28;121881;-60
2021/05/01 03:23:27;;;;;;;5.00;4.30;;;;;;;12.06;65.75;100416.63;4900558;28;127899;-60
2021/05/01 03:25:53;;;;;;;5.00;4.47;;;;;;;12.02;65.67;100419.91;4901017;28;98651;-63
2021/05/01 03:28:21;;;;;;;6.10;4.57;;;;;;;12.04;66.00;100430.41;4900341;28;123394;-63
2021/05/01 03:30:48;;;;;;;5.72;4.75;;;;;;;12.06;65.63;100451.75;4900613;28;98623;-63
2021/05/01 03:33:15;;;;;;;5.30;4.45;;;;;;;12.02;65.92;100449.63;4900643;28;98649;-60
2021/05/01 03:35:41;;;;;;;5.20;4.60;;;;;;;12.03;65.94;100458.53;4899954;28;110074;-60
2021/05/01 03:38:07;;;;;;;6.70;4.78;;;;;;;12.00;65.54;100448.28;4900254;28;110250;-63
2021/05/01 03:40:33;;;;;;;5.47;4.97;;;;;;;12.02;65.45;100446.91;4913676;28;126298;-62
2021/05/01 03:42:59;;;;;;;5.45;4.60;;;;;;;12.02;65.76;100456.88;4901201;28;98511;-60
2021/05/01 03:45:25;;;;;;;5.10;4.60;;;;;;;12.00;65.66;100459.88;4899190;28;126992;-60
2021/05/01 03:47:51;;;;;;;6.45;5.00;;;;;;;12.00;65.82;100459.06;4903057;28;107214;-63
2021/05/01 03:50:17;;;;;;;5.75;5.00;;;;;;;12.01;65.79;100456.09;4902450;28;127733;-63
2021/05/01 03:52:43;;;;;;;6.32;5.28;;;;;;;12.00;65.88;100456.38;4902187;28;128688;-60
2021/05/01 03:55:10;;;;;;;5.05;4.50;;;;;;;11.98;65.60;100453.13;4903107;28;127769;-62
2021/05/01 03:57:36;;;;;;;6.95;5.13;;;;;;;11.98;65.72;100459.34;4904195;28;97958;-61
2021/05/01 04:00:03;;;;;;;5.55;4.93;;;;;;;11.99;65.89;100452.06;4902868;28;127980;-60
2021/05/01 04:02:29;;;;;;;5.63;4.70;;;;;;;12.00;65.86;100459.06;4903632;28;98655;-60
2021/05/01 04:04:55;;;;;;;6.10;5.25;;;;;;;11.98;65.90;100458.53;4901933;28;127472;-60
2021/05/01 04:07:21;;;;;;;5.25;4.70;;;;;;;11.99;65.70;100465.56;4902439;28;121755;-63
2021/05/01 04:09:47;;;;;;;6.00;5.40;;;;;;;11.98;66.02;100458.53;4902410;28;123940;-63
2021/05/01 04:12:13;;;;;;;5.57;4.93;;;;;;;12.00;65.64;100467.19;4900939;28;127480;-60
2021/05/01 04:14:39;;;;;;;5.80;5.20;;;;;;;12.00;65.86;100467.19;4902061;28;129072;-62
2021/05/01 04:17:05;;;;;;;5.68;5.10;;;;;;;11.99;66.12;100462.88;4898526;28;97986;-60
2021/05/01 04:19:31;;;;;;;6.10;5.32;;;;;;;12.00;66.02;100459.06;4893033;28;117124;-62
2021/05/01 04:22:03;;;;;;;5.95;5.35;;;;;;;12.02;66.16;100455.03;4900103;28;127082;-60
2021/05/01 04:24:30;;;;;;;5.90;4.60;;;;;;;12.04;65.71;100454.75;4904163;28;98269;-62
2021/05/01 04:26:57;;;;;;;7.25;5.50;;;;;;;12.04;66.08;100460.94;4903205;28;97722;-60
2021/05/01 04:29:23;;;;;;;7.75;5.68;;;;;;;12.06;66.46;100463.34;4918071;28;98582;-62
2021/05/01 04:31:49;;;;;;;5.90;5.30;;;;;;;12.10;66.05;100461.72;4902577;28;127196;-60
2021/05/01 04:34:15;;;;;;;6.20;5.30;;;;;;;12.11;65.85;100459.84;4902269;28;125536;-63
2021/05/01 04:36:41;;;;;;;6.40;5.70;;;;;;;12.16;66.01;100457.13;4902780;28;98517;-60
2021/05/01 04:39:07;;;;;;;6.13;5.53;;;;;;;12.18;66.12;100461.16;4901862;28;116658;-60
2021/05/01 04:41:34;;;;;;;6.65;5.65;;;;;;;12.18;66.47;100461.16;4903744;28;104722;-60
2021/05/01 04:44:00;;;;;;;6.50;5.80;;;;;;;12.20;66.07;100472.50;4902779;28;117887;-63
2021/05/01 04:46:26;;;;;;;6.68;5.85;;;;;;;12.18;66.57;100471.97;4902770;28;98169;-60
2021/05/01 04:48:52;;;;;;;7.97;6.43;;;;;;;12.21;66.37;100470.59;4916166;28;128164;-60
2021/05/01 04:51:19;;;;;;;6.95;6.13;;;;;;;12.21;66.16;100476.81;4902034;28;98676;-60
2021/05/01 04:53:45;;;;;;;6.82;6.13;;;;;;;12.20;66.63;100466.28;4902069;28;118382;-60
2021/05/01 04:56:11;;;;;;;7.60;6.13;;;;;;;12.20;66.97;100467.09;4901413;28;122825;-60
2021/05/01 04:58:37;;;;;;;8.80;6.05;;;;;;;12.22;66.15;100469.50;4901463;28;107452;-60
2021/05/01 05:01:03;;;;;;;6.75;6.05;;;;;;;12.26;66.24;100475.97;4903491;28;98561;-63
2021/05/01 05:03:30;;;;;;;7.80;6.18;;;;;;;12.24;66.22;100461.94;4901817;28;127617;-60
2021/05/01 05:05:56;;;;;;;7.65;6.70;;;;;;;12.27;66.67;100473.00;4903001;28;98077;-63
2021/05/01 05:08:22;;;;;;;7.88;6.60;;;;;;;12.28;66.78;100465.69;4901994;28;127257;-63
2021/05/01 05:10:48;;;;;;;7.50;6.60;;;;;;;12.34;66.34;100469.16;4899748;28;128300;-63
2021/05/01 05:13:14;;;;;;;7.65;6.60;;;;;;;12.40;66.43;100471.56;4884523;28;109216;-60
2021/05/01 05:15:40;;;;;;;7.38;6.60;;;;;;;12.45;66.10;100478.84;4900261;28;97865;-63
2021/05/01 05:18:06;;;;;;;7.78;6.43;;;;;;;12.47;66.45;100476.69;4901714;28;121481;-63
2021/05/01 05:20:32;;;;;;;7.28;6.47;;;;;;;12.45;66.14;100486.94;4916334;28;99490;-63
2021/05/01 05:22:58;;;;;;;7.63;6.78;;;;;;;12.43;66.40;100494.56;4901394;28;127975;-60
2021/05/01 05:25:24;;;;;;;8.35;7.10;;;;;;;12.42;66.83;100501.84;4901369;28;115249;-62
2021/05/01 05:27:50;;;;;;;7.32;6.60;;;;;;;12.41;66.96;100492.09;4900918;28;128557;-63
2021/05/01 05:30:16;;;;;;;7.45;6.68;;;;;;;12.44;66.61;100483.44;4901513;28;126793;-60
2021/05/01 05:32:42;;;;;;;7.90;7.10;;;;;;;12.44;66.59;100491.56;4898397;28;97922;-61
2021/05/01 05:35:09;;;;;;;8.40;7.13;;;;;;;12.41;66.89;100489.41;4913061;28;113967;-63
2021/05/01 05:37:35;;;;;;;8.38;7.47;;;;;;;12.44;66.56;100493.44;4898226;28;98888;-64
2021/05/01 05:40:02;;;;;;;8.60;7.20;;;;;;;12.44;66.61;100491.56;4898056;28;105446;-61
2021/05/01 05:42:28;;;;;;;8.63;7.43;;;;;;;12.47;66.56;100474.78;4898629;28;98600;-60
2021/05/01 05:44:54;;;;;;;8.25;6.70;;;;;;;12.52;66.36;100479.34;4899572;28;98033;-63
2021/05/01 05:47:20;;;;;;;8.55;7.05;;;;;;;12.54;67.11;100471.78;4898615;28;98761;-63
2021/05/01 05:49:46;;;;;;;8.65;7.28;;;;;;;12.53;66.82;100473.66;4898020;28;128233;-60
2021/05/01 05:52:12;;;;;;;8.43;7.25;;;;;;;12.53;66.71;100473.66;4898536;28;97777;-63
2021/05/01 05:54:38;;;;;;;8.23;7.32;;;;;;;12.57;66.66;100473.91;4897375;28;98054;-63
2021/05/01 05:57:08;;;;;;;8.40;7.22;;;;;;;12.60;66.76;100477.94;4898804;28;98826;-63
2021/05/01 05:59:35;;;;;;;8.45;7.47;;;;;;;12.63;66.37;100478.19;4897749;28;99085;-63
2021/05/01 06:02:02;;;;;;;8.32;7.45;;;;;;;12.65;66.69;100491.44;4897154;28;98324;-63
2021/05/01 06:04:55;;;;;;;8.30;7.47;;;;;;;12.68;66.66;100486.28;4881326;28;97991;-61
2021/05/01 06:07:45;;;;;;;8.75;7.63;;;;;;;12.70;66.46;100492.22;4897648;28;98263;-63
2021/05/01 06:10:12;;;;;;;9.18;7.90;;;;;;;12.73;66.74;100488.13;4882302;28;120092;-60
2021/05/01 06:12:38;;;;;;;8.52;7.63;;;;;;;12.71;66.52;100488.41;4897572;28;115015;-60
2021/05/01 06:15:13;;;;;;;9.60;7.90;;;;;;;12.81;66.18;100486.72;4895654;28;98686;-60
2021/05/01 06:17:39;;;;;;;13.98;8.30;;;;;;;12.86;66.40;100495.63;4898085;28;99036;-60
2021/05/01 06:20:07;;;;;;;8.38;7.57;;;;;;;12.91;66.44;100505.59;4880072;28;99063;-63
2021/05/01 06:22:34;;;;;;;8.38;7.50;;;;;;;12.96;66.24;100492.81;4898124;28;98508;-62
2021/05/01 06:25:01;;;;;;;8.27;7.43;;;;;;;13.00;66.03;100501.19;4896311;28;109768;-61
2021/05/01 06:27:27;;;;;;;8.77;7.88;;;;;;;13.05;65.82;100495.75;4898168;28;98925;-61
2021/05/01 06:29:53;;;;;;;9.93;8.15;;;;;;;13.10;65.95;100490.31;4895845;28;99431;-63
2021/05/01 06:32:20;;;;;;;9.02;8.13;;;;;;;13.23;65.69;100483.44;4896569;28;126385;-60
2021/05/01 06:34:54;;;;;;;8.68;7.78;;;;;;;13.36;65.40;100482.81;4896649;28;97923;-63
2021/05/01 06:37:21;;;;;;;10.32;8.07;;;;;;;13.44;65.25;100486.75;4880536;28;99941;-61
2021/05/01 06:39:49;;;;;;;9.07;8.18;;;;;;;13.51;64.93;100473.69;4896102;28;99070;-61
2021/05/01 06:42:38;;;;;;;9.05;8.02;;;;;;;13.64;64.61;100473.03;4896321;28;98120;-63
2021/05/01 06:45:09;;;;;;;9.23;8.10;;;;;;;13.66;64.63;100475.44;4898472;28;97948;-63
2021/05/01 06:47:37;;;;;;;9.02;8.13;;;;;;;13.63;65.09;100478.72;4895924;28;98658;-61
2021/05/01 06:50:07;;;;;;;9.68;8.65;;;;;;;13.60;65.35;100473.91;4880569;28;98432;-63
2021/05/01 06:52:34;;;;;;;9.38;8.38;;;;;;;13.61;65.65;100468.19;4897713;28;98193;-63
2021/05/01 06:55:02;;;;;;;9.52;8.60;;;;;;;13.64;65.29;100470.34;4896561;28;98245;-61
2021/05/01 06:57:28;;;;;;;9.93;8.93;;;;;;;13.73;65.21;100470.50;4897389;28;98993;-63
2021/05/01 06:59:57;;;;;;;10.38;8.93;;;;;;;13.84;64.91;100473.91;4895973;28;99305;-63
2021/05/01 07:02:32;;;;;;;11.07;9.07;;;;;;;14.04;63.93;100473.66;4897402;28;98004;-63
2021/05/01 07:04:59;;;;;;;9.73;8.82;;;;;;;14.36;63.41;100472.97;4898181;28;98273;-63
2021/05/01 07:07:28;;;;;;;9.57;8.57;;;;;;;14.69;62.25;100467.63;4897180;28;98177;-63
2021/05/01 07:09:54;;;;;;;9.50;8.57;;;;;;;15.18;60.74;100464.41;4912443;28;98433;-61
2021/05/01 07:12:21;;;;;;;9.63;8.65;;;;;;;16.33;56.91;100458.13;4897496;28;98121;-63
2021/05/01 07:14:47;;;;;;;7.85;7.15;;;;;;;16.96;57.13;100463.78;4897643;28;107767;-64
2021/05/01 07:17:14;;;;;;;8.38;7.22;;;;;;;17.05;55.58;100461.91;4897244;28;98142;-64
2021/05/01 07:19:41;;;;;;;7.75;7.00;;;;;;;17.34;54.71;100462.25;4879168;28;98378;-61
2021/05/01 07:22:08;;;;;;;8.68;7.80;;;;;;;17.78;53.63;100455.09;4901572;28;98849;-61
2021/05/01 07:24:35;;;;;;;7.57;6.78;;;;;;;19.10;54.54;100452.97;4902114;28;100829;-64
2021/05/01 07:27:01;;;;;;;7.75;6.95;;;;;;;20.20;52.05;100447.69;4900648;28;98275;-62
2021/05/01 07:29:31;;;;;;;7.13;6.38;;;;;;;21.48;48.84;100445.25;4901516;28;99977;-65
2021/05/01 07:31:57;;;;;;;6.68;5.97;;;;;;;22.62;47.33;100448.81;4903608;28;107889;-65
2021/05/01 07:34:23;;;;;;;6.65;5.95;;;;;;;22.84;47.52;100454.94;4901954;28;98110;-65
2021/05/01 07:36:52;;;;;;;5.97;5.47;;;;;;;23.77;45.78;100460.91;4884476;28;128301;-62
2021/05/01 07:39:18;;;;;;;5.30;4.80;;;;;;;24.23;45.53;100474.97;4902852;28;98067;-65
2021/05/01 07:41:45;;;;;;;5.47;4.97;;;;;;;24.87;44.51;100476.34;4883462;28;127643;-65
2021/05/01 07:44:12;;;;;;;5.45;4.80;;;;;;;25.04;43.79;100474.31;4903213;28;98447;-62
2021/05/01 07:46:41;;;;;;;5.75;5.20;;;;;;;25.11;44.12;100469.75;4902604;28;98051;-65
2021/05/01 07:49:08;;;;;;;5.40;4.90;;;;;;;25.47;44.03;100475.91;4903245;28;98552;-62
2021/05/01 07:51:39;;;;;;;5.03;4.63;;;;;;;26.26;42.42;100471.63;4902007;28;97941;-65
2021/05/01 07:54:05;;;;;;;4.93;4.50;;;;;;;26.83;41.53;100464.88;4902416;28;98021;-62
2021/05/01 07:56:31;;;;;;;4.55;4.15;;;;;;;27.99;39.61;100464.81;4901278;28;114912;-65
2021/05/01 07:59:00;;;;;;;4.93;4.10;;;;;;;27.46;40.86;100474.25;4902076;28;98646;-62
2021/05/01 08:01:29;;;;;;;4.13;3.83;;;;;;;27.28;40.92;100481.59;4901874;28;99755;-62
2021/05/01 08:03:55;;;;;;;4.60;4.18;;;;;;;26.32;43.01;100476.44;4900347;28;104006;-65
2021/05/01 08:06:22;;;;;;;4.45;4.05;;;;;;;25.82;44.16;100472.97;4902900;28;98491;-62
2021/05/01 08:08:49;;;;;;;4.60;4.20;;;;;;;25.00;45.86;100482.50;4896003;28;98966;-65
2021/05/01 08:11:15;;;;;;;4.47;4.07;;;;;;;24.30;46.47;100482.59;4901724;28;127590;-62
2021/05/01 08:13:41;;;;;;;4.40;4.00;;;;;;;23.98;47.57;100472.44;4904139;28;106080;-64
2021/05/01 08:16:07;;;;;;;4.63;4.20;;;;;;;23.69;48.22;100470.94;4901488;28;112111;-64
2021/05/01 08:18:33;;;;;;;4.43;4.03;;;;;;;23.54;47.98;100466.25;4902542;28;128784;-62
2021/05/01 08:20:59;;;;;;;4.72;4.22;;;;;;;22.90;49.04;100470.00;4902240;28;115103;-64
2021/05/01 08:23:25;;;;;;;4.60;4.20;;;;;;;22.49;49.53;100466.50;4902332;28;123446;-62
2021/05/01 08:25:51;;;;;;;4.63;4.22;;;;;;;22.01;50.13;100460.72;4903129;28;99792;-62
2021/05/01 08:28:17;;;;;;;4.60;4.20;;;;;;;21.70;50.46;100472.25;4902399;28;128329;-61
2021/05/01 08:30:44;;;;;;;5.05;4.50;;;;;;;21.54;51.73;100463.09;4902266;28;98475;-61
2021/05/01 08:33:10;;;;;;;5.10;4.60;;;;;;;21.26;50.67;100454.66;4900360;28;97840;-62
2021/05/01 08:35:36;;;;;;;4.55;4.15;;;;;;;21.00;51.35;100452.22;4898503;28;128156;-61
2021/05/01 08:38:02;;;;;;;4.78;4.38;;;;;;;20.65;52.03;100462.69;4898906;28;127922;-62
2021/05/01 08:40:33;;;;;;;5.43;4.63;;;;;;;20.40;52.25;100448.03;4897178;28;100887;-61
2021/05/01 08:42:59;;;;;;;5.35;4.50;;;;;;;20.26;52.98;100445.56;4899715;28;97945;-64
2021/05/01 08:45:27;;;;;;;4.43;4.03;;;;;;;20.28;53.02;100446.03;4898376;28;98292;-64
2021/05/01 08:47:53;;;;;;;4.80;4.40;;;;;;;20.14;52.79;100443.53;4898974;28;97897;-61
2021/05/01 08:50:25;;;;;;;4.47;4.07;;;;;;;20.23;53.53;100444.28;4897464;28;98845;-64
2021/05/01 08:52:54;;;;;;;4.70;4.30;;;;;;;20.62;52.41;100444.19;4897567;28;98286;-61
2021/05/01 08:55:28;;;;;;;4.72;4.03;;;;;;;20.94;52.07;100454.34;4898936;28;117649;-64
2021/05/01 08:57:54;;;;;;;3.80;3.50;;;;;;;23.19;47.34;100439.41;4898618;28;98673;-64
2021/05/01 09:00:21;;;;;;;3.75;3.38;;;;;;;23.33;47.30;100447.22;4897879;28;127987;-65
2021/05/01 09:02:48;;;;;;;3.53;3.22;;;;;;;23.20;48.21;100443.75;4896637;28;109383;-64
2021/05/01 09:05:14;;;;;;;3.30;3.00;;;;;;;23.27;48.24;100445.91;4896349;28;98596;-62
2021/05/01 09:07:43;;;;;;;3.35;3.00;;;;;;;24.58;45.37;100450.16;4896585;28;99747;-64
2021/05/01 09:10:10;;;;;;;3.00;2.70;;;;;;;26.74;40.89;100436.75;4898619;28;98163;-65
2021/05/01 09:12:46;;;;;;;2.60;2.40;;;;;;;28.31;37.88;100435.31;4898803;28;97772;-62
2021/05/01 09:15:23;;;;;;;3.92;3.53;;;;;;;27.90;32.97;100445.75;4897024;28;99634;-65
2021/05/01 09:17:59;;;;;;;3.78;3.40;;;;;;;28.25;28.39;100441.59;4912813;28;98948;-65
2021/05/01 09:20:25;;;;;;;4.13;3.83;;;;;;;28.19;26.63;100438.41;4897478;28;98782;-66
2021/05/01 09:23:00;;;;;;;4.00;3.70;;;;;;;26.50;26.46;100443.56;4898594;28;106685;-65
2021/05/01 09:25:28;;;;;;;3.65;3.35;;;;;;;28.12;24.81;100450.25;4896990;28;98302;-65
2021/05/01 09:28:13;;;;;;;3.38;3.00;;;;;;;30.35;22.59;100441.09;4898559;28;98274;-63
2021/05/01 09:30:40;;;;;;;3.65;3.33;;;;;;;30.93;21.70;100424.94;4899287;28;98047;-63
2021/05/01 09:33:38;;;;;;;3.47;3.17;;;;;;;32.53;19.91;100433.03;4896750;28;98083;-60
2021/05/01 09:36:24;;;;;;;3.42;2.90;;;;;;;32.87;18.76;100428.19;4894854;28;98015;-63
2021/05/01 09:38:51;;;;;;;3.90;3.33;;;;;;;31.48;20.27;100426.94;4897874;28;109624;-60
2021/05/01 09:41:20;;;;;;;3.55;3.13;;;;;;;32.22;19.16;100407.91;4898264;28;98609;-62
2021/05/01 09:44:18;;;;;;;2.80;2.53;;;;;;;33.76;18.56;100397.25;4897725;28;98574;-63
2021/05/01 09:46:48;;;;;;;3.25;3.00;;;;;;;33.59;18.08;100421.53;4898116;28;98418;-60
2021/05/01 09:49:33;;;;;;;3.83;3.42;;;;;;;33.43;17.92;100413.78;4899619;28;98530;-63
2021/05/01 09:52:17;;;;;;;3.55;3.25;;;;;;;33.27;17.68;100402.50;4896465;28;98155;-63
2021/05/01 09:54:45;;;;;;;3.40;3.10;;;;;;;33.18;17.42;100409.41;4898584;28;98192;-60
2021/05/01 09:57:16;;;;;;;3.33;3.03;;;;;;;33.52;17.04;100396.50;4898516;28;98467;-63
2021/05/01 09:59:47;;;;;;;3.90;3.60;;;;;;;33.17;17.97;100387.47;4896685;28;99033;-63
2021/05/01 10:02:20;;;;;;;3.80;3.50;;;;;;;33.74;17.52;100394.13;4897284;28;97926;-60
2021/05/01 10:05:12;;;;;;;2.85;2.65;;;;;;;35.13;16.72;100391.97;4894239;28;98051;-60
2021/05/01 10:07:50;;;;;;;4.03;3.72;;;;;;;34.25;16.96;100384.34;4894935;28;98580;-63
2021/05/01 10:10:16;;;;;;;3.17;2.88;;;;;;;34.44;16.47;100386.31;4880164;28;98710;-63
2021/05/01 10:12:43;;;;;;;3.03;2.80;;;;;;;34.57;16.93;100383.66;4897789;28;104314;-63
2021/05/01 10:15:16;;;;;;;3.25;2.95;;;;;;;35.03;16.88;100383.84;4897524;28;97892;-60
2021/05/01 10:17:44;;;;;;;3.10;2.80;;;;;;;35.15;16.02;100383.94;4895650;28;98764;-63
2021/05/01 10:20:11;;;;;;;5.68;2.78;;;;;;;31.71;19.10;100387.34;4879294;28;99809;-63
2021/05/01 10:22:47;;;;;;;3.42;3.10;;;;;;;28.76;21.10;100393.50;4896647;28;118355;-60
2021/05/01 10:25:19;;;;;;;3.95;3.55;;;;;;;26.49;23.28;100389.50;4897730;28;112856;-62
2021/05/01 10:27:54;;;;;;;3.92;3.53;;;;;;;25.59;24.47;100379.16;4895575;28;98444;-64
2021/05/01 10:30:39;;;;;;;3.38;3.08;;;;;;;24.54;26.95;100399.72;4896348;28;98558;-64
2021/05/01 10:36:04;;;;;;;3.92;3.38;;;;;;;23.74;28.37;100393.66;4896137;28;98158;-62
2021/05/01 10:38:30;;;;;;;3.97;3.67;;;;;;;25.70;25.68;100384.81;4898560;28;98775;-64
2021/05/01 10:41:02;;;;;;;4.00;3.60;;;;;;;24.34;27.56;100389.84;4897784;28;113089;-65
2021/05/01 10:43:33;;;;;;;4.43;3.50;;;;;;;23.59;28.25;100393.66;4895639;28;115963;-64
2021/05/01 10:46:05;;;;;;;4.00;3.60;;;;;;;22.88;29.31;100396.16;4898707;28;98712;-64
2021/05/01 10:48:44;;;;;;;4.13;3.72;;;;;;;22.64;29.65;100399.03;4891568;28;99028;-64
2021/05/01 10:51:11;;;;;;;3.67;3.35;;;;;;;22.56;29.84;100387.06;4897358;28;98296;-64
2021/05/01 10:53:38;;;;;;;4.05;3.60;;;;;;;22.44;30.18;100392.56;4900252;28;98108;-62
2021/05/01 10:56:06;;;;;;;3.85;3.33;;;;;;;22.22;30.99;100397.47;4897510;28;98129;-61
2021/05/01 10:58:35;;;;;;;4.80;3.65;;;;;;;22.00;30.84;100398.72;4897866;28;112809;-62
2021/05/01 11:01:02;;;;;;;4.80;3.60;;;;;;;21.87;30.91;100388.91;4897815;28;99042;-62
2021/05/01 11:03:29;;;;;;;3.80;3.45;;;;;;;21.61;31.31;100394.75;4897245;28;98707;-62
2021/05/01 11:05:58;;;;;;;4.13;3.72;;;;;;;21.24;31.91;100388.44;4896309;28;98364;-61
2021/05/01 11:08:50;;;;;;;3.90;3.60;;;;;;;21.19;31.98;100386.72;4897650;28;99033;-64
2021/05/01 11:11:16;;;;;;;3.53;3.22;;;;;;;21.22;31.74;100383.31;4897029;28;99189;-63
2021/05/01 11:13:42;;;;;;;3.90;3.60;;;;;;;20.90;32.08;100392.34;4878907;28;110177;-61
2021/05/01 11:16:09;;;;;;;4.05;3.65;;;;;;;20.92;32.24;100387.34;4879106;28;113627;-61
2021/05/01 11:18:39;;;;;;;3.90;3.60;;;;;;;20.87;31.86;100384.81;4897561;28;98489;-61
2021/05/01 11:21:09;;;;;;;3.65;3.35;;;;;;;21.79;30.57;100384.38;4896607;28;98893;-63
2021/05/01 11:23:38;;;;;;;8.07;5.82;;;;;;;21.50;30.70;100383.47;4895814;28;98480;-63
2021/05/01 11:26:08;;;;;;;9.60;6.78;;;;;;;21.14;31.44;100381.44;4897762;28;98049;-64
2021/05/01 11:28:40;;;;;;;4.72;4.05;;;;;;;21.31;31.29;100374.97;4894822;28;98891;-61